Time;durP1;ratioP1;P1;durP2;ratioP2;P2;SDS_P1;SDS_P2;PMS_P1;PMS_P2;Temp;Humidity;BMP_temperature;BMP_pressure;BME280_temperature;BME280_humidity;BME280_pressure;Samples;Min_cycle;Max_cycle;Signal;HPM_P1;HPM_P2
2022/06/30 00:00:05;;;;;;;0.00;0.00;;;26.20;64.50;;;;;;4192574;28;20126;-71
2022/06/30 00:02:31;;;;;;;0.00;0.00;;;26.20;64.50;;;;;;4191974;28;20072;-71
2022/06/30 00:04:53;;;;;;;0.30;0.30;;;26.20;64.50;;;;;;4192031;28;22345;-71
2022/06/30 00:07:15;;;;;;;0.00;0.00;;;26.20;64.50;;;;;;4192229;28;20048;-70
2022/06/30 00:09:40;;;;;;;0.93;0.85;;;26.20;64.50;;;;;;4192515;28;20402;-70
2022/06/30 00:12:02;;;;;;;0.15;0.15;;;26.20;64.60;;;;;;4191134;28;20070;-70
2022/06/30 00:14:24;;;;;;;0.00;0.00;;;26.20;64.60;;;;;;4192894;28;20547;-70
2022/06/30 00:16:48;;;;;;;0.00;0.00;;;26.20;64.60;;;;;;4191087;28;20121;-70
2022/06/30 00:19:11;;;;;;;0.00;0.00;;;26.20;64.60;;;;;;4192776;28;20131;-71
2022/06/30 00:21:33;;;;;;;0.63;0.63;;;26.20;64.60;;;;;;4192572;28;20064;-70
2022/06/30 00:23:55;;;;;;;0.00;0.00;;;26.10;64.60;;;;;;4192132;28;20047;-71
2022/06/30 00:26:18;;;;;;;0.15;0.15;;;26.20;64.60;;;;;;4191064;28;20068;-71
2022/06/30 00:28:40;;;;;;;0.00;0.00;;;26.10;64.70;;;;;;4192949;28;20068;-71
2022/06/30 00:31:02;;;;;;;0.00;0.00;;;26.10;64.70;;;;;;4190884;28;20052;-72
2022/06/30 00:33:24;;;;;;;0.00;0.00;;;26.20;64.70;;;;;;4191918;28;20063;-71
2022/06/30 00:35:48;;;;;;;0.00;0.00;;;26.10;64.70;;;;;;4192261;28;20050;-70
2022/06/30 00:38:10;;;;;;;0.15;0.10;;;26.10;64.70;;;;;;4192598;28;20072;-72
2022/06/30 00:40:35;;;;;;;5.18;1.13;;;26.10;64.60;;;;;;4191582;28;20556;-71
2022/06/30 00:42:59;;;;;;;0.55;0.25;;;26.10;64.70;;;;;;4192128;28;20044;-71
2022/06/30 00:45:21;;;;;;;0.00;0.00;;;26.10;64.70;;;;;;4159093;28;20099;-71
2022/06/30 00:47:42;;;;;;;0.20;0.20;;;26.10;64.70;;;;;;4159656;28;20051;-71
2022/06/30 00:50:06;;;;;;;0.00;0.00;;;26.10;64.80;;;;;;4159157;28;20395;-71
2022/06/30 00:52:30;;;;;;;0.10;0.10;;;26.10;64.80;;;;;;4165808;28;20075;-71
2022/06/30 00:54:55;;;;;;;0.13;0.13;;;26.10;64.80;;;;;;4191966;28;20048;-71
2022/06/30 00:57:19;;;;;;;0.40;0.40;;;26.00;64.70;;;;;;4192113;28;20049;-71
2022/06/30 00:59:45;;;;;;;0.52;0.52;;;26.00;64.60;;;;;;4191576;28;20545;-71
2022/06/30 01:02:09;;;;;;;0.00;0.00;;;26.00;64.70;;;;;;4191957;28;20503;-71
2022/06/30 01:04:35;;;;;;;0.08;0.08;;;26.00;64.70;;;;;;4191935;28;20059;-70
2022/06/30 01:06:58;;;;;;;0.38;0.38;;;26.00;64.80;;;;;;4191524;28;20549;-70
2022/06/30 01:14:36;;;;;;;0.22;0.22;;;26.00;64.70;;;;;;4190539;28;20495;-70
2022/06/30 01:16:59;;;;;;;0.08;0.08;;;26.00;64.70;;;;;;4191822;28;20510;-71
2022/06/30 01:19:21;;;;;;;0.00;0.00;;;26.00;64.70;;;;;;4192128;28;20045;-71
2022/06/30 01:22:00;;;;;;;0.20;0.20;;;25.90;64.70;;;;;;4191483;28;20048;-71
2022/06/30 01:24:22;;;;;;;0.00;0.00;;;25.90;64.80;;;;;;4157347;28;20049;-71
2022/06/30 01:26:44;;;;;;;0.00;0.00;;;25.90;64.60;;;;;;4191670;28;20110;-71
2022/06/30 01:29:07;;;;;;;0.00;0.00;;;26.00;64.80;;;;;;4191766;28;20415;-72
2022/06/30 01:31:29;;;;;;;0.00;0.00;;;26.00;64.90;;;;;;4191864;28;20361;-72
2022/06/30 01:33:52;;;;;;;0.22;0.22;;;25.90;64.60;;;;;;4158793;28;20125;-71
2022/06/30 01:36:14;;;;;;;0.00;0.00;;;25.90;64.80;;;;;;4158566;28;20152;-71
2022/06/30 01:38:38;;;;;;;0.08;0.08;;;25.90;64.80;;;;;;4157499;28;20150;-72
2022/06/30 01:40:59;;;;;;;0.00;0.00;;;25.90;64.80;;;;;;4184912;28;20131;-71
2022/06/30 01:43:21;;;;;;;0.00;0.00;;;25.90;64.80;;;;;;4158025;28;20091;-71
2022/06/30 01:45:43;;;;;;;0.00;0.00;;;25.90;64.70;;;;;;4158509;28;20136;-71
2022/06/30 01:48:06;;;;;;;0.00;0.00;;;25.90;64.90;;;;;;4158270;28;20431;-71
2022/06/30 01:50:29;;;;;;;0.00;0.00;;;25.90;64.80;;;;;;4158770;28;20125;-71
2022/06/30 01:52:52;;;;;;;0.00;0.00;;;25.90;64.70;;;;;;4184005;28;20094;-71
2022/06/30 01:55:15;;;;;;;0.00;0.00;;;25.90;64.70;;;;;;4191673;28;20094;-71
2022/06/30 01:57:39;;;;;;;0.13;0.13;;;25.90;64.60;;;;;;4191412;28;20052;-71
2022/06/30 02:00:01;;;;;;;0.08;0.08;;;25.90;64.60;;;;;;4190005;28;20645;-70
2022/06/30 02:02:25;;;;;;;0.10;0.10;;;25.90;64.60;;;;;;4191378;28;20098;-70
2022/06/30 02:04:51;;;;;;;0.00;0.00;;;25.80;64.50;;;;;;4190640;28;20048;-71
2022/06/30 02:07:13;;;;;;;0.35;0.35;;;25.80;64.50;;;;;;4191348;28;20036;-70
2022/06/30 02:09:35;;;;;;;0.00;0.00;;;25.80;64.50;;;;;;4194763;28;20491;-70
2022/06/30 02:14:34;;;;;;;0.10;0.10;;;25.80;64.50;;;;;;4221353;28;20203;-71
2022/06/30 02:16:56;;;;;;;0.00;0.00;;;25.80;64.40;;;;;;4194878;28;20454;-71
2022/06/30 02:19:18;;;;;;;0.25;0.25;;;25.80;64.50;;;;;;4194325;28;20059;-70
2022/06/30 02:21:40;;;;;;;0.73;0.73;;;25.80;64.50;;;;;;4193610;28;20047;-70
2022/06/30 02:24:02;;;;;;;0.10;0.10;;;25.80;64.40;;;;;;4194115;28;20055;-71
2022/06/30 02:26:25;;;;;;;0.00;0.00;;;25.80;64.40;;;;;;4193371;28;20127;-71
2022/06/30 02:28:48;;;;;;;0.00;0.00;;;25.80;64.40;;;;;;4194272;28;20063;-71
2022/06/30 02:31:12;;;;;;;0.00;0.00;;;25.80;64.40;;;;;;4194713;28;20044;-71
2022/06/30 02:33:34;;;;;;;0.00;0.00;;;25.80;64.50;;;;;;4194219;28;20102;-72
2022/06/30 02:35:56;;;;;;;0.00;0.00;;;25.80;64.30;;;;;;4193865;28;20086;-72
2022/06/30 02:38:19;;;;;;;0.00;0.00;;;25.80;65.20;;;;;;4194166;28;20094;-71
2022/06/30 02:40:41;;;;;;;0.00;0.00;;;25.80;64.30;;;;;;4179051;28;20049;-72
2022/06/30 02:43:03;;;;;;;0.17;0.17;;;25.80;64.30;;;;;;4193563;28;20480;-71
2022/06/30 02:45:26;;;;;;;0.32;0.32;;;25.80;64.30;;;;;;4194549;28;20071;-71
2022/06/30 02:47:48;;;;;;;0.00;0.00;;;25.80;64.30;;;;;;4193979;28;20047;-71
2022/06/30 02:50:11;;;;;;;0.00;0.00;;;25.70;64.30;;;;;;4193861;28;20402;-71
2022/06/30 02:52:35;;;;;;;0.00;0.00;;;25.70;64.40;;;;;;4193648;28;20045;-70
2022/06/30 02:54:57;;;;;;;0.10;0.10;;;25.70;64.60;;;;;;4192843;28;20044;-71
2022/06/30 02:57:19;;;;;;;0.00;0.00;;;25.70;64.60;;;;;;4192282;28;20138;-71
2022/06/30 02:59:41;;;;;;;0.10;0.10;;;25.70;64.60;;;;;;4194028;28;20117;-71
2022/06/30 03:02:05;;;;;;;0.00;0.00;;;25.70;64.70;;;;;;4193618;28;20053;-72
2022/06/30 03:04:27;;;;;;;0.00;0.00;;;25.70;64.70;;;;;;4193606;28;20122;-72
2022/06/30 03:06:49;;;;;;;0.03;0.03;;;25.70;64.70;;;;;;4192419;28;20051;-72
2022/06/30 03:09:11;;;;;;;0.22;0.22;;;25.70;64.60;;;;;;4193935;28;20046;-73
2022/06/30 03:11:34;;;;;;;0.00;0.00;;;25.70;65.60;;;;;;4193251;28;20047;-72
2022/06/30 03:14:12;;;;;;;0.00;0.00;;;25.70;64.70;;;;;;4193750;28;20048;-73
2022/06/30 03:16:33;;;;;;;0.20;0.20;;;25.60;64.70;;;;;;4193804;28;20048;-72
2022/06/30 03:18:57;;;;;;;0.00;0.00;;;25.70;64.80;;;;;;4192182;28;20127;-72
2022/06/30 03:21:20;;;;;;;0.00;0.00;;;25.60;64.70;;;;;;4193824;28;20060;-71
2022/06/30 03:23:42;;;;;;;0.75;0.75;;;25.60;64.70;;;;;;4193252;28;20041;-70
2022/06/30 03:26:04;;;;;;;0.00;0.00;;;25.60;64.70;;;;;;4193503;28;20072;-71
2022/06/30 03:28:27;;;;;;;0.10;0.10;;;25.60;64.70;;;;;;4191651;28;20076;-71
2022/06/30 03:30:49;;;;;;;0.00;0.00;;;25.60;64.60;;;;;;4193388;28;20047;-72
2022/06/30 03:33:11;;;;;;;0.00;0.00;;;25.60;64.80;;;;;;4191521;28;20589;-71
2022/06/30 03:35:35;;;;;;;0.10;0.10;;;25.60;65.00;;;;;;4193049;28;20048;-70
2022/06/30 03:37:57;;;;;;;0.00;0.00;;;25.60;64.70;;;;;;4193436;28;20139;-71
2022/06/30 03:40:19;;;;;;;0.00;0.00;;;25.60;64.70;;;;;;4192137;28;20052;-71
2022/06/30 03:42:41;;;;;;;0.00;0.00;;;25.60;64.70;;;;;;4192870;28;20130;-71
2022/06/30 03:45:03;;;;;;;0.20;0.20;;;25.60;64.70;;;;;;4193442;28;20647;-70
2022/06/30 03:47:26;;;;;;;0.05;0.05;;;25.60;64.70;;;;;;4192915;28;20051;-70
2022/06/30 03:49:48;;;;;;;0.00;0.00;;;25.60;64.70;;;;;;4160353;28;20405;-70
2022/06/30 03:52:11;;;;;;;0.00;0.00;;;25.50;64.70;;;;;;4160109;28;20053;-70
2022/06/30 03:54:34;;;;;;;0.00;0.00;;;25.50;64.80;;;;;;4178898;28;20102;-70
2022/06/30 03:56:56;;;;;;;0.00;0.00;;;25.50;64.70;;;;;;4192780;28;20487;-70
2022/06/30 03:59:18;;;;;;;0.00;0.00;;;25.50;64.70;;;;;;4192876;28;20067;-71
2022/06/30 04:01:41;;;;;;;0.52;0.52;;;25.50;64.60;;;;;;4192867;28;20044;-70
2022/06/30 04:04:03;;;;;;;0.05;0.05;;;25.60;64.70;;;;;;4192790;28;20048;-71
2022/06/30 04:06:25;;;;;;;0.10;0.10;;;25.50;64.60;;;;;;4192881;28;20052;-71
2022/06/30 04:08:49;;;;;;;0.05;0.05;;;25.50;64.50;;;;;;4193384;28;20135;-71
2022/06/30 04:11:11;;;;;;;0.00;0.00;;;25.50;64.60;;;;;;4192672;28;20041;-71
2022/06/30 04:13:34;;;;;;;0.00;0.00;;;25.50;64.60;;;;;;4191376;28;20491;-71
2022/06/30 04:15:56;;;;;;;0.00;0.00;;;25.50;64.60;;;;;;4191164;28;20171;-70
2022/06/30 04:18:18;;;;;;;0.30;0.30;;;25.50;64.50;;;;;;4192736;28;20118;-71
2022/06/30 04:20:40;;;;;;;0.00;0.00;;;25.50;64.50;;;;;;4192086;28;20058;-71
2022/06/30 04:23:02;;;;;;;0.10;0.10;;;25.50;64.50;;;;;;4192825;28;20049;-71
2022/06/30 04:25:30;;;;;;;0.00;0.00;;;25.50;64.40;;;;;;4192505;28;20058;-71
2022/06/30 04:27:54;;;;;;;0.00;0.00;;;25.50;64.40;;;;;;4192665;28;20151;-71
2022/06/30 04:32:37;;;;;;;0.00;0.00;;;25.50;64.30;;;;;;4192273;28;20145;-72
2022/06/30 04:32:58;;;;;;;0.00;0.00;;;25.50;64.30;;;;;;4192506;28;20036;-71
2022/06/30 04:35:20;;;;;;;;;;;25.50;64.20;;;;;;4192967;28;20044;-70
2022/06/30 04:37:43;;;;;;;0.00;0.00;;;25.50;64.30;;;;;;4191955;28;19971;-71
2022/06/30 04:42:47;;;;;;;0.52;0.32;;;25.50;64.40;;;;;;4191975;28;20079;-72
2022/06/30 04:45:10;;;;;;;0.10;0.10;;;25.50;64.40;;;;;;4176368;28;20400;-71
2022/06/30 04:47:32;;;;;;;0.00;0.00;;;25.50;64.40;;;;;;4192314;28;20122;-71
2022/06/30 04:49:54;;;;;;;0.00;0.00;;;25.50;64.40;;;;;;4192221;28;20386;-70
2022/06/30 04:52:16;;;;;;;0.50;0.50;;;25.50;64.30;;;;;;4190696;28;20043;-71
2022/06/30 04:54:38;;;;;;;0.00;0.00;;;25.50;64.30;;;;;;4190187;28;20048;-71
2022/06/30 04:57:00;;;;;;;0.00;0.00;;;25.50;64.20;;;;;;4192166;28;20037;-71
2022/06/30 04:59:24;;;;;;;0.00;0.00;;;25.60;64.20;;;;;;4192107;28;20056;-71
2022/06/30 05:01:46;;;;;;;0.00;0.00;;;25.60;64.10;;;;;;4192260;28;20554;-71
2022/06/30 05:04:08;;;;;;;0.00;0.00;;;25.60;64.00;;;;;;4188546;28;20128;-71
2022/06/30 05:06:32;;;;;;;0.00;0.00;;;25.60;63.90;;;;;;4191715;28;20055;-71
2022/06/30 05:08:54;;;;;;;0.00;0.00;;;25.60;64.00;;;;;;4190903;28;20169;-71
2022/06/30 05:11:15;;;;;;;0.98;0.98;;;25.60;64.00;;;;;;4191452;28;20098;-71
2022/06/30 05:13:37;;;;;;;0.35;0.35;;;25.60;64.00;;;;;;4192058;28;20483;-70
2022/06/30 05:16:01;;;;;;;0.10;0.10;;;25.60;63.90;;;;;;4192371;28;20135;-71
2022/06/30 05:18:28;;;;;;;0.00;0.00;;;25.60;63.80;;;;;;4191693;28;20122;-68
2022/06/30 05:20:50;;;;;;;0.00;0.00;;;25.60;63.60;;;;;;4192041;28;20040;-70
2022/06/30 05:23:12;;;;;;;0.00;0.00;;;25.60;63.70;;;;;;4191834;28;20048;-70
2022/06/30 05:28:14;;;;;;;0.30;0.30;;;25.70;63.60;;;;;;4173789;28;20045;-69
2022/06/30 05:30:36;;;;;;;0.00;0.00;;;25.70;63.40;;;;;;4165503;28;20053;-69
2022/06/30 05:32:59;;;;;;;1.35;1.08;;;25.80;63.20;;;;;;4163103;28;20067;-69
2022/06/30 05:35:21;;;;;;;0.00;0.00;;;25.80;62.70;;;;;;4174819;28;20056;-69
2022/06/30 05:37:46;;;;;;;0.47;0.47;;;25.80;62.40;;;;;;4175338;28;20395;-69
2022/06/30 05:40:09;;;;;;;0.05;0.05;;;25.80;62.20;;;;;;4174827;28;20053;-69
2022/06/30 05:42:31;;;;;;;0.00;0.00;;;25.80;62.10;;;;;;4176338;28;20106;-69
2022/06/30 05:44:53;;;;;;;0.00;0.00;;;25.80;62.00;;;;;;4178854;28;20044;-69
2022/06/30 05:47:15;;;;;;;0.00;0.00;;;25.80;61.90;;;;;;4162037;28;20042;-69
2022/06/30 05:49:39;;;;;;;0.00;0.00;;;25.80;62.60;;;;;;4161652;28;20096;-68
2022/06/30 05:52:01;;;;;;;0.00;0.00;;;25.80;61.70;;;;;;4187119;28;20064;-69
2022/06/30 05:54:23;;;;;;;0.00;0.00;;;25.80;61.90;;;;;;4194175;28;20063;-70
2022/06/30 05:56:46;;;;;;;0.00;0.00;;;25.80;61.80;;;;;;4194292;28;20039;-69
2022/06/30 05:59:08;;;;;;;0.00;0.00;;;25.80;61.90;;;;;;4189116;28;20135;-69
2022/06/30 06:01:30;;;;;;;0.13;0.13;;;25.80;62.10;;;;;;4188067;28;20475;-69
2022/06/30 06:03:52;;;;;;;0.00;0.00;;;25.80;62.50;;;;;;4181409;28;20056;-69
2022/06/30 06:06:16;;;;;;;0.00;0.00;;;25.80;62.50;;;;;;4177431;28;20162;-69
2022/06/30 06:08:38;;;;;;;0.38;0.38;;;25.80;62.40;;;;;;4177860;28;20132;-69
2022/06/30 06:11:00;;;;;;;0.00;0.00;;;25.80;62.30;;;;;;4164515;28;20049;-69
2022/06/30 06:13:23;;;;;;;0.00;0.00;;;25.80;62.40;;;;;;4157085;28;20060;-70
2022/06/30 06:15:45;;;;;;;0.47;0.47;;;25.80;62.40;;;;;;4159906;28;20056;-71
2022/06/30 06:18:07;;;;;;;0.00;0.00;;;25.80;62.60;;;;;;4161262;28;20212;-72
2022/06/30 06:20:30;;;;;;;0.13;0.13;;;25.80;62.70;;;;;;4161097;28;20404;-72
2022/06/30 06:22:53;;;;;;;0.10;0.10;;;25.80;62.70;;;;;;4161662;28;20056;-72
2022/06/30 06:25:16;;;;;;;0.00;0.00;;;25.80;62.70;;;;;;4161206;28;20056;-72
2022/06/30 06:27:39;;;;;;;0.00;0.00;;;25.80;62.60;;;;;;4161539;28;20045;-72
2022/06/30 06:30:00;;;;;;;0.17;0.17;;;25.90;62.50;;;;;;4159958;28;20675;-72
2022/06/30 06:32:22;;;;;;;0.00;0.00;;;25.90;62.40;;;;;;4161628;28;20044;-73
2022/06/30 06:34:44;;;;;;;0.00;0.00;;;25.90;62.30;;;;;;4161328;28;20084;-73
2022/06/30 06:37:06;;;;;;;0.00;0.00;;;25.90;62.40;;;;;;4187068;28;20048;-73
2022/06/30 06:39:29;;;;;;;0.00;0.00;;;25.90;62.40;;;;;;4193541;28;20148;-72
2022/06/30 06:41:51;;;;;;;0.00;0.00;;;25.90;62.40;;;;;;4177637;28;20128;-73
2022/06/30 06:44:14;;;;;;;1.15;1.15;;;25.90;63.40;;;;;;4177561;28;20059;-73
2022/06/30 06:46:35;;;;;;;0.00;0.00;;;25.90;62.50;;;;;;4177920;28;20048;-73
2022/06/30 06:49:01;;;;;;;0.00;0.00;;;25.90;62.40;;;;;;4193983;28;20044;-72
2022/06/30 06:51:23;;;;;;;0.00;0.00;;;26.00;62.40;;;;;;4194100;28;20105;-73
2022/06/30 06:53:45;;;;;;;0.00;0.00;;;26.00;62.20;;;;;;4192474;28;20083;-72
2022/06/30 06:56:08;;;;;;;0.00;0.00;;;26.10;62.10;;;;;;4194056;28;20036;-72
2022/06/30 06:58:30;;;;;;;0.00;0.00;;;26.20;62.00;;;;;;4191876;28;20410;-72
2022/06/30 07:00:53;;;;;;;0.15;0.15;;;26.30;62.10;;;;;;4192299;28;20114;-71
2022/06/30 07:03:15;;;;;;;0.00;0.00;;;26.30;62.00;;;;;;4193318;28;20139;-71
2022/06/30 07:05:37;;;;;;;0.65;0.65;;;26.40;62.00;;;;;;4190906;28;20036;-71
2022/06/30 07:08:00;;;;;;;0.63;0.40;;;26.40;62.10;;;;;;4193059;28;20415;-71
2022/06/30 07:10:22;;;;;;;0.00;0.00;;;26.40;63.20;;;;;;4193477;28;20060;-72
2022/06/30 07:12:46;;;;;;;0.57;0.57;;;26.40;64.30;;;;;;4193355;28;20063;-70
2022/06/30 07:15:09;;;;;;;0.00;0.00;;;26.50;64.90;;;;;;4191784;28;20131;-70
2022/06/30 07:17:35;;;;;;;0.17;0.17;;;26.50;64.70;;;;;;4192694;28;20395;-71
2022/06/30 07:19:58;;;;;;;0.10;0.10;;;26.50;64.40;;;;;;4192905;28;20044;-71
2022/06/30 07:22:21;;;;;;;0.28;0.28;;;26.60;65.30;;;;;;4193338;28;20059;-70
2022/06/30 07:24:43;;;;;;;0.00;0.00;;;26.60;64.60;;;;;;4193418;28;20068;-72
2022/06/30 07:27:06;;;;;;;0.00;0.00;;;26.60;64.70;;;;;;4191791;28;20097;-71
2022/06/30 07:29:30;;;;;;;0.00;0.00;;;26.60;65.00;;;;;;4193355;28;20044;-71
2022/06/30 07:31:53;;;;;;;0.00;0.00;;;26.60;65.10;;;;;;4193465;28;20399;-72
2022/06/30 07:34:15;;;;;;;0.30;0.30;;;26.60;65.20;;;;;;4193096;28;20063;-72
2022/06/30 07:36:40;;;;;;;32.53;4.57;;;26.60;65.00;;;;;;4193118;28;20056;-71
2022/06/30 07:39:03;;;;;;;0.00;0.00;;;26.70;65.20;;;;;;4192940;28;20055;-72
2022/06/30 07:41:25;;;;;;;0.00;0.00;;;26.70;65.30;;;;;;4193206;28;20516;-71
2022/06/30 07:43:48;;;;;;;0.00;0.00;;;26.70;65.10;;;;;;4193066;28;20469;-72
2022/06/30 07:46:12;;;;;;;0.17;0.17;;;26.70;65.10;;;;;;4191429;28;20138;-72
2022/06/30 07:48:34;;;;;;;0.10;0.10;;;26.70;65.00;;;;;;4192958;28;20495;-72
2022/06/30 07:50:56;;;;;;;0.00;0.00;;;26.70;65.00;;;;;;4192983;28;20384;-71
2022/06/30 07:53:18;;;;;;;0.38;0.38;;;26.80;65.00;;;;;;4193244;28;20483;-73
2022/06/30 07:55:40;;;;;;;0.00;0.00;;;26.80;64.90;;;;;;4192819;28;20048;-71
2022/06/30 07:58:02;;;;;;;0.05;0.05;;;26.80;64.70;;;;;;4192788;28;20109;-72
2022/06/30 08:00:25;;;;;;;0.28;0.28;;;26.80;64.60;;;;;;4193591;28;20133;-72
2022/06/30 08:02:49;;;;;;;0.30;0.30;;;26.80;64.50;;;;;;4191083;28;20044;-71
2022/06/30 08:05:11;;;;;;;0.00;0.00;;;26.80;65.30;;;;;;4192431;28;20049;-71
2022/06/30 08:07:33;;;;;;;0.65;0.65;;;26.90;64.40;;;;;;4191532;28;20057;-71
2022/06/30 08:09:55;;;;;;;0.20;0.20;;;26.90;64.30;;;;;;4192850;28;20403;-71
2022/06/30 08:12:17;;;;;;;0.10;0.10;;;26.80;64.20;;;;;;4191014;28;20068;-72
2022/06/30 08:14:40;;;;;;;0.03;0.03;;;26.90;64.20;;;;;;4191795;28;20036;-71
2022/06/30 08:17:02;;;;;;;0.00;0.00;;;26.90;64.30;;;;;;4192671;28;20518;-71
2022/06/30 08:19:25;;;;;;;0.00;0.00;;;26.90;64.10;;;;;;4192777;28;20040;-71
2022/06/30 08:21:47;;;;;;;0.10;0.10;;;26.90;64.00;;;;;;4192603;28;20127;-70
2022/06/30 08:24:09;;;;;;;0.35;0.13;;;26.90;64.00;;;;;;4192627;28;20540;-71
2022/06/30 08:26:31;;;;;;;0.25;0.25;;;26.90;63.90;;;;;;4192439;28;20101;-70
2022/06/30 08:28:54;;;;;;;1.30;0.32;;;26.90;63.90;;;;;;4192607;28;20193;-70
2022/06/30 08:31:16;;;;;;;0.10;0.10;;;26.90;63.80;;;;;;4192423;28;20111;-71
2022/06/30 08:33:38;;;;;;;0.00;0.00;;;26.90;63.80;;;;;;4191937;28;20040;-72
2022/06/30 08:36:02;;;;;;;0.55;0.55;;;27.00;63.80;;;;;;4192143;28;20551;-70
2022/06/30 08:38:25;;;;;;;0.00;0.00;;;27.00;63.70;;;;;;4192329;28;20044;-72
2022/06/30 08:43:29;;;;;;;0.20;0.20;;;27.00;63.70;;;;;;4192202;28;20079;-72
2022/06/30 08:45:52;;;;;;;0.00;0.00;;;27.00;63.70;;;;;;4191903;28;20383;-71
2022/06/30 08:48:15;;;;;;;0.00;0.00;;;27.10;63.70;;;;;;4192418;28;20543;-71
2022/06/30 08:50:39;;;;;;;0.40;0.40;;;27.10;63.70;;;;;;4192081;28;20113;-70
2022/06/30 08:53:09;;;;;;;0.10;0.10;;;27.10;64.50;;;;;;4192461;28;20048;-71
2022/06/30 08:55:33;;;;;;;0.00;0.00;;;27.10;63.50;;;;;;4191739;28;20111;-71
2022/06/30 08:57:59;;;;;;;0.00;0.00;;;27.20;63.60;;;;;;4192280;28;20048;-71
2022/06/30 09:00:21;;;;;;;0.65;0.43;;;27.20;63.40;;;;;;4190778;28;20060;-71
2022/06/30 09:02:45;;;;;;;0.10;0.10;;;27.20;63.40;;;;;;4192228;28;20044;-72
2022/06/30 09:05:09;;;;;;;0.00;0.00;;;27.20;63.20;;;;;;4191697;28;20526;-71
2022/06/30 09:07:31;;;;;;;0.35;0.35;;;27.20;63.10;;;;;;4192168;28;20446;-70
2022/06/30 09:09:55;;;;;;;0.00;0.00;;;27.30;63.20;;;;;;4190704;28;20049;-71
2022/06/30 09:12:18;;;;;;;0.00;0.00;;;27.30;63.10;;;;;;4192200;28;20044;-71
2022/06/30 09:14:42;;;;;;;0.17;0.17;;;27.30;63.00;;;;;;4192047;28;20048;-71
2022/06/30 09:17:06;;;;;;;2.75;1.42;;;27.30;62.80;;;;;;4192252;28;20556;-71
2022/06/30 09:19:29;;;;;;;0.10;0.10;;;27.30;63.60;;;;;;4191729;28;20120;-70
2022/06/30 09:22:04;;;;;;;0.10;0.10;;;27.40;62.70;;;;;;4191782;28;20106;-71
2022/06/30 09:24:27;;;;;;;0.10;0.10;;;27.40;62.60;;;;;;4192071;28;20056;-71
2022/06/30 09:27:09;;;;;;;0.17;0.17;;;27.40;62.50;;;;;;4192048;28;20051;-71
2022/06/30 09:29:32;;;;;;;0.00;0.00;;;27.40;62.50;;;;;;4191738;28;20510;-71
2022/06/30 09:32:14;;;;;;;0.00;0.00;;;27.50;63.40;;;;;;4192170;28;20048;-71
2022/06/30 09:34:38;;;;;;;0.20;0.20;;;27.50;62.50;;;;;;4191728;28;20059;-71
2022/06/30 09:37:03;;;;;;;0.00;0.00;;;27.50;62.30;;;;;;4192032;28;20056;-71
2022/06/30 09:39:24;;;;;;;0.00;0.00;;;27.50;62.20;;;;;;4191627;28;20056;-72
2022/06/30 09:41:49;;;;;;;0.45;0.45;;;27.50;62.10;;;;;;4192081;28;20067;-71
2022/06/30 09:44:23;;;;;;;0.00;0.00;;;27.60;62.10;;;;;;4191770;28;20052;-71
2022/06/30 09:46:55;;;;;;;0.25;0.25;;;27.60;62.10;;;;;;4191494;28;20189;-71
2022/06/30 09:49:29;;;;;;;0.13;0.13;;;27.60;62.00;;;;;;4191513;28;20106;-71
2022/06/30 09:51:51;;;;;;;4.68;0.75;;;27.70;61.90;;;;;;4190352;28;20048;-72
2022/06/30 09:54:13;;;;;;;0.55;0.55;;;27.70;61.80;;;;;;4189369;28;20055;-71
2022/06/30 09:56:36;;;;;;;0.00;0.00;;;27.70;61.70;;;;;;4190246;28;20048;-71
2022/06/30 09:58:58;;;;;;;0.00;0.00;;;27.70;61.60;;;;;;4191435;28;20446;-70
2022/06/30 10:01:21;;;;;;;0.00;0.00;;;27.80;61.60;;;;;;4191680;28;20059;-70
2022/06/30 10:03:45;;;;;;;0.65;0.65;;;27.80;61.50;;;;;;4190455;28;20047;-71
2022/06/30 10:06:10;;;;;;;0.00;0.00;;;27.80;61.50;;;;;;4191572;28;20044;-71
2022/06/30 10:08:33;;;;;;;0.03;0.03;;;27.80;61.30;;;;;;4187426;28;20036;-70
2022/06/30 10:10:55;;;;;;;0.20;0.20;;;27.90;61.40;;;;;;4190322;28;20076;-71
2022/06/30 10:13:18;;;;;;;0.00;0.00;;;27.90;61.30;;;;;;4191451;28;20057;-71
2022/06/30 10:15:41;;;;;;;0.10;0.10;;;27.90;61.20;;;;;;4191715;28;20044;-71
2022/06/30 10:18:07;;;;;;;0.35;0.35;;;27.90;61.20;;;;;;4191070;28;20059;-70
2022/06/30 10:20:33;;;;;;;0.00;0.00;;;27.90;61.10;;;;;;4191557;28;20052;-71
2022/06/30 10:22:55;;;;;;;4.68;1.77;;;28.00;61.10;;;;;;4189814;28;20048;-71
2022/06/30 10:25:18;;;;;;;0.00;0.00;;;28.00;61.10;;;;;;4191382;28;20445;-72
2022/06/30 10:27:40;;;;;;;0.00;0.00;;;28.00;61.00;;;;;;4191612;28;20444;-71
2022/06/30 10:30:05;;;;;;;0.00;0.00;;;28.00;61.00;;;;;;4194634;28;20572;-72
2022/06/30 10:32:44;;;;;;;0.00;0.00;;;28.00;60.90;;;;;;4192720;28;20568;-72
2022/06/30 10:35:15;;;;;;;2.60;1.45;;;28.00;60.80;;;;;;4194226;28;20070;-71
2022/06/30 10:37:43;;;;;;;0.00;0.00;;;28.10;60.90;;;;;;4193735;28;20492;-72
2022/06/30 10:40:15;;;;;;;0.10;0.10;;;28.10;60.70;;;;;;4193828;28;20090;-72
2022/06/30 10:42:48;;;;;;;0.30;0.30;;;28.10;60.70;;;;;;4193410;28;20492;-72
2022/06/30 10:45:35;;;;;;;0.25;0.25;;;28.10;60.70;;;;;;4193738;28;20084;-71
2022/06/30 10:47:58;;;;;;;0.00;0.00;;;28.20;60.70;;;;;;4194013;28;20162;-71
2022/06/30 10:50:33;;;;;;;0.20;0.20;;;28.10;60.60;;;;;;4193735;28;20403;-71
2022/06/30 10:52:55;;;;;;;0.20;0.20;;;28.20;60.60;;;;;;4193725;28;20048;-71
2022/06/30 10:55:18;;;;;;;0.47;0.47;;;28.20;60.50;;;;;;4178217;28;20100;-70
2022/06/30 10:58:02;;;;;;;0.00;0.00;;;28.20;60.40;;;;;;4193280;28;20059;-69
2022/06/30 11:00:44;;;;;;;0.20;0.13;;;28.20;60.30;;;;;;4194143;28;20072;-70
2022/06/30 11:03:06;;;;;;;0.00;0.00;;;28.30;60.30;;;;;;4193898;28;20051;-70
2022/06/30 11:05:28;;;;;;;2.55;0.30;;;28.30;61.20;;;;;;4193716;28;20051;-70
2022/06/30 11:07:52;;;;;;;1.35;0.93;;;28.30;60.20;;;;;;4194199;28;20556;-70
2022/06/30 11:10:21;;;;;;;0.55;0.52;;;28.30;60.20;;;;;;4193794;28;20098;-70
2022/06/30 11:13:00;;;;;;;0.00;0.00;;;28.30;60.00;;;;;;4193793;28;20048;-70
2022/06/30 11:15:22;;;;;;;0.60;0.60;;;28.40;60.10;;;;;;4191503;28;20049;-69
2022/06/30 11:17:44;;;;;;;0.00;0.00;;;28.40;60.00;;;;;;4194029;28;20052;-69
2022/06/30 11:20:13;;;;;;;0.20;0.20;;;28.40;59.90;;;;;;4193715;28;20181;-70
2022/06/30 11:22:36;;;;;;;0.00;0.00;;;28.40;60.70;;;;;;4193945;28;20059;-70
2022/06/30 11:25:04;;;;;;;1.27;1.25;;;28.40;59.80;;;;;;4193159;28;20144;-70
2022/06/30 11:27:28;;;;;;;0.10;0.10;;;28.40;59.70;;;;;;4192226;28;20044;-70
2022/06/30 11:29:57;;;;;;;0.00;0.00;;;28.40;59.70;;;;;;4193457;28;20539;-70
2022/06/30 11:32:23;;;;;;;0.10;0.10;;;28.50;59.70;;;;;;4193379;28;20098;-71
2022/06/30 11:35:06;;;;;;;0.10;0.10;;;28.50;59.70;;;;;;4191322;28;20134;-70
2022/06/30 11:37:29;;;;;;;0.10;0.10;;;28.50;59.60;;;;;;4175599;28;20044;-70
2022/06/30 11:39:57;;;;;;;0.03;0.03;;;28.50;59.50;;;;;;4176114;28;20049;-71
2022/06/30 11:42:20;;;;;;;0.35;0.35;;;28.50;59.50;;;;;;4176492;28;20052;-71
2022/06/30 11:44:43;;;;;;;0.10;0.10;;;28.60;59.50;;;;;;4176830;28;20136;-70
2022/06/30 11:47:07;;;;;;;0.00;0.00;;;28.60;59.40;;;;;;4175262;28;20053;-70
2022/06/30 11:49:40;;;;;;;0.00;0.00;;;28.60;59.40;;;;;;4187392;28;20470;-71
2022/06/30 11:52:11;;;;;;;0.15;0.15;;;28.60;59.40;;;;;;4193033;28;20048;-70
2022/06/30 11:54:33;;;;;;;;;;;28.60;59.30;;;;;;4193593;28;20040;-70
2022/06/30 11:56:57;;;;;;;0.25;0.25;;;28.60;59.30;;;;;;4191391;28;19924;-69
2022/06/30 11:59:21;;;;;;;0.00;0.00;;;28.70;59.30;;;;;;4193089;28;20057;-74
2022/06/30 12:02:00;;;;;;;0.20;0.20;;;28.70;59.30;;;;;;4192822;28;20047;-72
2022/06/30 12:04:22;;;;;;;0.68;0.68;;;28.60;59.30;;;;;;4192744;28;20133;-72
2022/06/30 12:06:50;;;;;;;1.17;0.77;;;28.70;59.40;;;;;;4192842;28;20129;-72
2022/06/30 12:09:13;;;;;;;0.20;0.20;;;28.70;59.50;;;;;;4190459;28;20044;-72
2022/06/30 12:11:36;;;;;;;0.00;0.00;;;28.70;59.50;;;;;;4192764;28;20575;-70
2022/06/30 12:13:57;;;;;;;2.40;0.65;;;28.70;59.50;;;;;;4192826;28;20045;-71
2022/06/30 12:16:21;;;;;;;0.00;0.00;;;28.70;59.50;;;;;;4192509;28;20423;-71
2022/06/30 12:18:43;;;;;;;0.00;0.00;;;28.60;59.50;;;;;;4192556;28;20094;-71
2022/06/30 12:21:05;;;;;;;2.25;1.65;;;28.60;59.60;;;;;;4192186;28;20052;-71
2022/06/30 12:23:28;;;;;;;2.30;0.80;;;28.60;59.70;;;;;;4192732;28;20072;-69
2022/06/30 12:25:50;;;;;;;0.00;0.00;;;28.60;61.00;;;;;;4190733;28;20570;-69
2022/06/30 12:28:12;;;;;;;0.00;0.00;;;28.60;59.90;;;;;;4192398;28;20052;-69
2022/06/30 12:30:36;;;;;;;0.10;0.10;;;28.60;60.00;;;;;;4192324;28;20051;-69
2022/06/30 12:33:02;;;;;;;0.22;0.22;;;28.50;60.00;;;;;;4192209;28;20507;-69
2022/06/30 12:35:27;;;;;;;0.00;0.00;;;28.50;60.10;;;;;;4191764;28;20048;-69
2022/06/30 12:37:51;;;;;;;0.25;0.25;;;28.50;60.20;;;;;;4191841;28;20044;-69
2022/06/30 12:40:16;;;;;;;0.15;0.15;;;28.40;60.20;;;;;;4192512;28;20047;-69
2022/06/30 12:42:44;;;;;;;0.40;0.40;;;28.40;60.30;;;;;;4192358;28;20041;-69
2022/06/30 12:45:07;;;;;;;0.52;0.52;;;28.40;60.40;;;;;;4190600;28;20072;-69